Terminal Aerodrome Forecast
Issued by NWS Wilmington, NC

Home | Current Version | Previous Version | Text Only | Print | Product List | Glossary On
Versions: 1 2 3 4 5 6 7 8 9 10 11 12 13 14 15 16 17 18 19 20 21
000
FTUS42 KILM 041120
TAFILM
TAF
KILM 041120Z 0412/0512 17012KT 5SM -SHRA SCT015 OVC035
      TEMPO 0412/0416 VRB15G25KT 2SM TSRA BKN015CB OVC025
     FM041600 16012KT P6SM VCTS SCT020CB BKN040
      TEMPO 0418/0420 VRB20G30KT 3SM TSRA BKN020CB OVC045
     FM050000 22006KT P6SM BKN060=

USA.gov is the U.S. government's official web portal to all federal, state and local government web resources and services.